Time;durP1;ratioP1;P1;durP2;ratioP2;P2;SDS_P1;SDS_P2;PMS_P1;PMS_P2;Temp;Humidity;BMP_temperature;BMP_pressure;BME280_temperature;BME280_humidity;BME280_pressure;Samples;Min_cycle;Max_cycle;Signal;HPM_P1;HPM_P2
2021/11/08 00:02:06;;;;;;;8.83;7.93;;;9.50;99.30;;;;;;6202576;28;20483;-63
2021/11/08 00:05:09;;;;;;;12.57;8.03;;;9.40;99.60;;;;;;6201486;28;20988;-63
2021/11/08 00:08:15;;;;;;;8.40;7.50;;;9.40;99.80;;;;;;6201549;28;20469;-63
2021/11/08 00:11:18;;;;;;;8.10;6.93;;;9.50;99.90;;;;;;6188863;28;20543;-62
2021/11/08 00:14:23;;;;;;;11.03;8.50;;;9.50;99.90;;;;;;6201727;28;20535;-63
2021/11/08 00:17:41;;;;;;;10.53;7.87;;;9.60;99.90;;;;;;6201436;28;20487;-64
2021/11/08 00:20:46;;;;;;;10.33;7.80;;;9.70;99.90;;;;;;6202876;28;20481;-64
2021/11/08 00:23:50;;;;;;;8.00;7.20;;;9.70;99.80;;;;;;6202762;28;20792;-63
2021/11/08 00:26:54;;;;;;;8.13;7.33;;;9.70;99.80;;;;;;6202146;28;21018;-63
2021/11/08 00:29:57;;;;;;;8.80;8.03;;;9.70;99.70;;;;;;6203029;28;20968;-63
2021/11/08 00:33:02;;;;;;;8.63;7.70;;;9.70;99.80;;;;;;6202421;28;20810;-62
2021/11/08 00:36:05;;;;;;;8.00;7.30;;;9.60;99.90;;;;;;6203739;28;20464;-63
2021/11/08 00:39:09;;;;;;;10.47;8.40;;;9.50;99.90;;;;;;6203888;28;20449;-63
2021/11/08 00:42:12;;;;;;;9.60;7.73;;;9.50;99.90;;;;;;6204092;28;20899;-64
2021/11/08 00:45:15;;;;;;;9.50;7.50;;;9.50;99.90;;;;;;6203551;28;20941;-63
2021/11/08 00:48:23;;;;;;;8.90;7.53;;;9.50;99.90;;;;;;6203629;28;20538;-63
2021/11/08 00:51:26;;;;;;;8.67;7.80;;;9.60;99.90;;;;;;6202604;28;20461;-62
2021/11/08 00:54:30;;;;;;;9.80;7.30;;;9.60;99.90;;;;;;6202605;28;20956;-62
2021/11/08 00:57:34;;;;;;;8.53;7.60;;;9.60;99.90;;;;;;6202238;28;20479;-63
2021/11/08 01:00:37;;;;;;;10.70;8.40;;;9.70;99.90;;;;;;6202482;28;20487;-63
2021/11/08 01:03:44;;;;;;;11.80;10.60;;;9.60;99.90;;;;;;6202079;28;20476;-62
2021/11/08 01:06:48;;;;;;;13.27;10.40;;;9.50;99.90;;;;;;6202388;28;20530;-63
2021/11/08 01:09:52;;;;;;;14.60;10.70;;;9.30;99.90;;;;;;6202210;28;20473;-63
2021/11/08 01:12:55;;;;;;;13.10;10.93;;;9.30;99.90;;;;;;6193546;28;20483;-63
2021/11/08 01:15:58;;;;;;;11.83;10.67;;;9.20;99.90;;;;;;6202095;28;21099;-63
2021/11/08 01:19:05;;;;;;;13.50;11.57;;;9.20;99.90;;;;;;6201365;28;20473;-63
2021/11/08 01:22:15;;;;;;;17.00;12.20;;;9.20;99.90;;;;;;6201512;28;20980;-63
2021/11/08 01:25:19;;;;;;;13.47;11.57;;;9.20;99.90;;;;;;6201376;28;21096;-63
2021/11/08 01:28:28;;;;;;;13.07;10.90;;;9.20;99.90;;;;;;6201172;28;20809;-63
2021/11/08 01:31:31;;;;;;;13.47;11.80;;;9.20;99.90;;;;;;6201282;28;20836;-63
2021/11/08 01:34:35;;;;;;;13.30;11.70;;;9.20;99.90;;;;;;6201772;28;20816;-63
2021/11/08 01:37:41;;;;;;;11.83;9.80;;;9.30;99.90;;;;;;6201299;28;20484;-63
2021/11/08 01:40:44;;;;;;;13.40;9.50;;;9.40;99.90;;;;;;6201656;28;20534;-63
2021/11/08 01:43:48;;;;;;;9.80;8.90;;;9.30;99.90;;;;;;6201224;28;20468;-63
2021/11/08 01:46:52;;;;;;;11.17;9.30;;;9.30;99.90;;;;;;6201362;28;20798;-63
2021/11/08 01:49:56;;;;;;;10.00;8.90;;;9.30;99.90;;;;;;6201501;28;20798;-63
2021/11/08 01:52:59;;;;;;;12.87;9.27;;;9.30;99.90;;;;;;6200557;28;20488;-63
2021/11/08 01:56:04;;;;;;;10.07;9.07;;;9.30;99.90;;;;;;6200621;28;20488;-64
2021/11/08 01:59:07;;;;;;;9.43;8.40;;;9.30;99.90;;;;;;6201057;28;20481;-64
2021/11/08 02:02:14;;;;;;;14.13;9.83;;;9.40;99.90;;;;;;6201536;28;20479;-65
2021/11/08 02:05:19;;;;;;;11.70;9.70;;;9.40;99.90;;;;;;6200293;28;20802;-64
2021/11/08 02:08:23;;;;;;;11.93;9.30;;;9.40;99.90;;;;;;6201110;28;20488;-64
2021/11/08 02:11:27;;;;;;;13.77;8.77;;;9.40;99.90;;;;;;6200627;28;20800;-64
2021/11/08 02:14:33;;;;;;;11.90;10.73;;;9.50;99.90;;;;;;6201306;28;20480;-64
2021/11/08 02:17:37;;;;;;;10.37;9.37;;;9.50;99.90;;;;;;6196097;28;20530;-64
2021/11/08 02:20:45;;;;;;;11.10;8.37;;;9.60;99.90;;;;;;6200673;28;20843;-64
2021/11/08 02:23:48;;;;;;;10.00;8.87;;;9.60;99.90;;;;;;6200644;28;20511;-64
2021/11/08 02:26:52;;;;;;;13.40;8.20;;;9.60;99.90;;;;;;6200290;28;20484;-64
2021/11/08 02:29:55;;;;;;;9.97;8.27;;;9.60;99.90;;;;;;6199786;28;20476;-64
2021/11/08 02:33:00;;;;;;;8.40;7.20;;;9.60;99.90;;;;;;6200875;28;20894;-63
2021/11/08 02:36:04;;;;;;;9.93;7.73;;;9.60;99.90;;;;;;6200304;28;20453;-64
2021/11/08 02:39:11;;;;;;;7.90;7.00;;;9.70;99.90;;;;;;6201012;28;20445;-64
2021/11/08 02:42:14;;;;;;;9.27;6.80;;;9.70;99.90;;;;;;6200410;28;20500;-64
2021/11/08 02:45:19;;;;;;;7.73;6.47;;;9.70;99.90;;;;;;6200874;28;20476;-65
2021/11/08 02:48:22;;;;;;;9.40;8.13;;;9.70;99.90;;;;;;6200450;28;20460;-64
2021/11/08 02:51:28;;;;;;;8.50;7.80;;;9.70;99.90;;;;;;6201130;28;20464;-64
2021/11/08 02:54:36;;;;;;;8.57;7.43;;;9.80;99.90;;;;;;6200117;28;20480;-63
2021/11/08 02:57:39;;;;;;;9.73;8.73;;;9.80;99.90;;;;;;6199923;28;20487;-63
2021/11/08 03:00:42;;;;;;;14.80;10.80;;;9.80;99.90;;;;;;6200397;28;20483;-63
2021/11/08 03:03:49;;;;;;;23.57;13.40;;;9.70;99.90;;;;;;6200536;28;21011;-63
2021/11/08 03:06:54;;;;;;;11.87;10.63;;;9.60;99.90;;;;;;6200722;28;20972;-63
2021/11/08 03:10:02;;;;;;;15.73;13.60;;;9.50;99.90;;;;;;6201147;28;20476;-64
2021/11/08 03:13:16;;;;;;;12.73;11.50;;;9.40;99.90;;;;;;6201402;28;20469;-64
2021/11/08 03:16:25;;;;;;;16.00;12.20;;;9.30;99.90;;;;;;6199187;28;20508;-64
2021/11/08 03:19:32;;;;;;;14.97;11.90;;;9.20;99.90;;;;;;6199554;28;20504;-64
2021/11/08 03:22:37;;;;;;;13.70;10.50;;;9.30;99.90;;;;;;6189871;28;20802;-64
2021/11/08 03:25:48;;;;;;;13.40;11.93;;;9.30;99.90;;;;;;6199618;28;20497;-63
2021/11/08 03:28:51;;;;;;;19.73;12.07;;;9.20;99.90;;;;;;6199436;28;20477;-63
2021/11/08 03:31:54;;;;;;;15.33;11.90;;;9.20;99.90;;;;;;6202438;28;20484;-63
2021/11/08 03:34:59;;;;;;;12.73;10.80;;;9.10;99.90;;;;;;6203758;28;20472;-64
2021/11/08 03:38:06;;;;;;;14.97;12.20;;;9.10;99.90;;;;;;6204607;28;20608;-63
2021/11/08 03:41:10;;;;;;;16.13;10.87;;;9.00;99.90;;;;;;6203563;28;20614;-63
2021/11/08 03:44:13;;;;;;;15.90;12.03;;;9.00;99.90;;;;;;6205278;28;20961;-63
2021/11/08 03:47:17;;;;;;;13.10;11.70;;;9.00;99.90;;;;;;6202492;28;21003;-63
2021/11/08 03:50:20;;;;;;;13.43;10.97;;;9.10;99.90;;;;;;6203473;28;20483;-63
2021/11/08 03:53:25;;;;;;;12.27;10.60;;;9.10;99.90;;;;;;6203414;28;20514;-63
2021/11/08 03:56:28;;;;;;;15.00;10.53;;;9.10;99.90;;;;;;6203463;28;20476;-63
2021/11/08 03:59:31;;;;;;;12.80;11.17;;;9.20;99.90;;;;;;6203399;28;20535;-63
2021/11/08 04:02:36;;;;;;;13.07;11.63;;;9.20;99.90;;;;;;6203735;28;20473;-63
2021/11/08 04:05:42;;;;;;;10.40;9.40;;;9.20;99.90;;;;;;6203167;28;20480;-63
2021/11/08 04:08:46;;;;;;;12.77;11.20;;;9.30;99.90;;;;;;6203558;28;20488;-63
2021/11/08 04:11:50;;;;;;;12.80;11.57;;;9.30;99.90;;;;;;6203621;28;20491;-63
2021/11/08 04:14:54;;;;;;;13.57;12.23;;;9.30;99.90;;;;;;6203385;28;20484;-63
2021/11/08 04:17:57;;;;;;;14.63;12.10;;;9.30;99.90;;;;;;6203656;28;20473;-63
2021/11/08 04:21:01;;;;;;;12.80;11.50;;;9.30;99.90;;;;;;6203273;28;20990;-63
2021/11/08 04:24:07;;;;;;;19.37;10.90;;;9.30;99.90;;;;;;6203604;28;20773;-63
2021/11/08 04:27:11;;;;;;;11.00;9.90;;;9.30;99.90;;;;;;6202889;28;20467;-63
2021/11/08 04:30:15;;;;;;;14.43;10.87;;;9.30;99.90;;;;;;6203237;28;20471;-63
2021/11/08 04:33:27;;;;;;;14.50;11.43;;;9.30;99.90;;;;;;6203060;28;20905;-63
2021/11/08 04:36:44;;;;;;;11.87;10.77;;;9.30;99.90;;;;;;6203872;28;20492;-64
2021/11/08 04:40:03;;;;;;;11.80;10.60;;;9.30;99.90;;;;;;6203510;28;20576;-63
2021/11/08 04:43:11;;;;;;;14.43;11.00;;;9.30;99.90;;;;;;6202854;28;20473;-63
2021/11/08 04:49:46;;;;;;;12.90;10.53;;;9.20;99.90;;;;;;6202255;28;20465;-62
2021/11/08 05:23:01;;;;;;;10.80;9.70;;;9.00;99.90;;;;;;6202351;28;20491;-63
2021/11/08 05:32:58;;;;;;;12.17;10.60;;;8.80;99.90;;;;;;6142559;28;20483;-63
2021/11/08 05:36:01;;;;;;;15.23;11.20;;;8.80;99.90;;;;;;6201307;28;20481;-63
2021/11/08 05:39:06;;;;;;;12.60;11.23;;;8.80;99.90;;;;;;6201686;28;20960;-63
2021/11/08 05:42:11;;;;;;;11.47;9.13;;;8.90;99.90;;;;;;6201561;28;20891;-63
2021/11/08 05:45:18;;;;;;;11.63;10.43;;;8.80;99.90;;;;;;6201938;28;20483;-63
2021/11/08 05:48:21;;;;;;;11.17;9.97;;;8.90;99.90;;;;;;6201517;28;20932;-63
2021/11/08 05:51:24;;;;;;;12.97;11.03;;;8.90;99.90;;;;;;6201826;28;20444;-64
2021/11/08 05:54:27;;;;;;;11.00;9.23;;;8.90;99.90;;;;;;6200323;28;20469;-63
2021/11/08 05:57:47;;;;;;;11.00;8.93;;;8.90;99.90;;;;;;6200788;28;20491;-63
2021/11/08 06:51:33;;;;;;;12.20;9.73;;;9.20;99.90;;;;;;6199294;28;20473;-67
2021/11/08 06:54:36;;;;;;;12.47;9.67;;;9.20;99.90;;;;;;6199737;28;20469;-65
2021/11/08 06:57:45;;;;;;;11.43;9.30;;;9.30;99.90;;;;;;6199079;28;20503;-64
2021/11/08 07:00:49;;;;;;;9.97;8.93;;;9.40;99.90;;;;;;6199658;28;20468;-65
2021/11/08 07:03:53;;;;;;;13.47;11.10;;;9.50;99.90;;;;;;6198884;28;20472;-63
2021/11/08 07:06:57;;;;;;;10.80;9.80;;;9.50;99.90;;;;;;6204103;28;20496;-63
2021/11/08 07:10:00;;;;;;;10.40;9.00;;;9.50;99.90;;;;;;6204397;28;20481;-63
2021/11/08 07:13:04;;;;;;;9.73;8.73;;;9.60;99.90;;;;;;6204532;28;20476;-64
2021/11/08 07:16:07;;;;;;;10.37;9.30;;;9.50;99.90;;;;;;6204187;28;20818;-64
2021/11/08 07:19:10;;;;;;;11.20;10.10;;;9.60;99.90;;;;;;6203498;28;20815;-63
2021/11/08 07:22:15;;;;;;;10.27;9.23;;;9.60;99.90;;;;;;6203472;28;20472;-63
2021/11/08 07:25:18;;;;;;;11.87;10.00;;;9.70;99.90;;;;;;6204062;28;20476;-64
2021/11/08 07:28:22;;;;;;;11.03;9.50;;;9.60;99.90;;;;;;6203607;28;20479;-62
2021/11/08 07:31:25;;;;;;;10.80;9.70;;;9.60;99.90;;;;;;6203921;28;20920;-62
2021/11/08 07:34:28;;;;;;;11.93;9.17;;;9.50;99.90;;;;;;6203611;28;20487;-64
2021/11/08 07:37:32;;;;;;;11.10;9.73;;;9.50;99.90;;;;;;6193034;28;20488;-64
2021/11/08 07:40:36;;;;;;;14.83;11.00;;;9.50;99.90;;;;;;6205203;28;20476;-65
2021/11/08 07:43:40;;;;;;;20.33;10.00;;;9.40;99.90;;;;;;6204767;28;20813;-64
2021/11/08 07:46:44;;;;;;;13.03;9.10;;;9.40;99.90;;;;;;6204761;28;20855;-65
2021/11/08 07:49:47;;;;;;;16.33;10.77;;;9.50;99.90;;;;;;6204738;28;20485;-65
2021/11/08 07:52:51;;;;;;;12.90;10.33;;;9.50;99.90;;;;;;6205017;28;20511;-65
2021/11/08 07:55:54;;;;;;;13.00;10.00;;;9.60;99.90;;;;;;6210274;28;20811;-65
2021/11/08 07:58:57;;;;;;;11.03;8.80;;;9.60;99.90;;;;;;6208913;28;20469;-66
2021/11/08 08:02:01;;;;;;;12.67;9.40;;;9.60;99.90;;;;;;6204694;28;20469;-65
2021/11/08 08:05:04;;;;;;;12.13;10.67;;;9.60;99.90;;;;;;6204300;28;20472;-65
2021/11/08 08:08:09;;;;;;;15.80;9.77;;;9.60;99.90;;;;;;6204305;28;20489;-66
2021/11/08 08:11:12;;;;;;;11.23;9.17;;;9.70;99.90;;;;;;6204176;28;20535;-64
2021/11/08 08:14:16;;;;;;;11.70;8.80;;;9.70;99.90;;;;;;6203884;28;20499;-65
2021/11/08 08:17:19;;;;;;;9.80;8.80;;;9.70;99.90;;;;;;6203238;28;20487;-66
2021/11/08 08:20:23;;;;;;;9.30;8.50;;;9.80;99.90;;;;;;6204117;28;20802;-65
2021/11/08 08:23:28;;;;;;;9.77;8.07;;;9.80;99.90;;;;;;6203344;28;20495;-65
2021/11/08 08:26:39;;;;;;;11.00;7.90;;;9.80;99.90;;;;;;6204034;28;20477;-66
2021/11/08 08:29:42;;;;;;;18.47;7.27;;;9.80;99.90;;;;;;6203658;28;20816;-67
2021/11/08 08:32:45;;;;;;;12.20;6.87;;;9.90;99.90;;;;;;6203767;28;20480;-65
2021/11/08 08:35:48;;;;;;;6.83;6.23;;;9.70;99.90;;;;;;6203483;28;20488;-66
2021/11/08 08:38:53;;;;;;;10.93;7.30;;;9.70;99.90;;;;;;6203472;28;20488;-67
2021/11/08 08:41:57;;;;;;;13.53;7.57;;;9.70;99.90;;;;;;6199528;28;20574;-66
2021/11/08 08:45:00;;;;;;;7.73;7.03;;;9.80;99.90;;;;;;6203033;28;20492;-67
2021/11/08 08:48:04;;;;;;;8.77;7.10;;;10.00;99.90;;;;;;6203010;28;20802;-67
2021/11/08 08:51:08;;;;;;;9.43;7.63;;;10.20;99.90;;;;;;6203019;28;20481;-66
2021/11/08 08:54:13;;;;;;;9.63;6.80;;;10.40;99.90;;;;;;6203587;28;20441;-67
2021/11/08 08:57:16;;;;;;;7.73;6.27;;;10.60;99.90;;;;;;6202866;28;20485;-67
2021/11/08 09:00:22;;;;;;;7.67;7.07;;;10.50;99.90;;;;;;6203140;28;20448;-66
2021/11/08 09:03:25;;;;;;;8.30;6.40;;;10.50;99.90;;;;;;6202818;28;20749;-67
2021/11/08 09:06:29;;;;;;;7.70;5.40;;;10.50;99.90;;;;;;6203012;28;20863;-66
2021/11/08 09:09:34;;;;;;;5.53;4.80;;;10.30;99.90;;;;;;6203285;28;20917;-66
2021/11/08 09:12:38;;;;;;;8.17;5.40;;;10.30;99.90;;;;;;6203026;28;20480;-67
2021/11/08 09:15:42;;;;;;;6.10;5.23;;;10.20;99.90;;;;;;6202896;28;20972;-67
2021/11/08 09:18:49;;;;;;;5.73;5.23;;;10.30;99.90;;;;;;6202955;28;20464;-67
2021/11/08 09:21:52;;;;;;;4.43;3.80;;;10.30;99.90;;;;;;6202701;28;20540;-67
2021/11/08 09:24:57;;;;;;;4.47;3.80;;;10.40;99.90;;;;;;6202665;28;20476;-65
2021/11/08 09:28:02;;;;;;;4.63;3.53;;;10.80;99.90;;;;;;6202562;28;20943;-67
2021/11/08 09:31:08;;;;;;;5.70;3.97;;;11.30;99.90;;;;;;6202305;28;20853;-66
2021/11/08 09:34:14;;;;;;;3.87;3.43;;;11.60;99.60;;;;;;6202597;28;20464;-71
2021/11/08 09:37:18;;;;;;;3.77;3.40;;;11.60;99.50;;;;;;6202240;28;20476;-68
2021/11/08 09:40:25;;;;;;;3.40;3.10;;;11.80;98.70;;;;;;6201504;28;20461;-68
2021/11/08 09:43:29;;;;;;;3.00;2.63;;;12.00;98.10;;;;;;6201907;28;20487;-66
2021/11/08 09:46:34;;;;;;;5.97;3.03;;;12.10;97.50;;;;;;6201664;28;20535;-66
2021/11/08 09:49:39;;;;;;;3.33;2.43;;;12.30;96.90;;;;;;6201804;28;20487;-66
2021/11/08 09:52:45;;;;;;;4.77;2.80;;;12.40;96.40;;;;;;6201986;28;20483;-66
2021/11/08 09:55:50;;;;;;;4.30;3.47;;;12.60;96.40;;;;;;6201105;28;20979;-65
2021/11/08 09:58:58;;;;;;;3.23;2.80;;;13.30;95.80;;;;;;6201790;28;20480;-66
2021/11/08 10:02:20;;;;;;;3.00;2.43;;;13.60;94.00;;;;;;6201692;28;20481;-64
2021/11/08 10:05:26;;;;;;;2.87;2.67;;;13.90;93.00;;;;;;6201499;28;20556;-66
2021/11/08 10:08:33;;;;;;;3.23;2.93;;;13.70;92.90;;;;;;6201888;28;20491;-66
2021/11/08 10:11:39;;;;;;;3.17;2.90;;;13.60;92.90;;;;;;6201523;28;20488;-67
2021/11/08 10:14:42;;;;;;;2.80;2.60;;;13.70;92.70;;;;;;6201885;28;20477;-65
2021/11/08 10:17:46;;;;;;;2.70;2.50;;;13.20;93.10;;;;;;6201318;28;20831;-66
2021/11/08 10:20:51;;;;;;;2.77;2.57;;;13.20;93.70;;;;;;6201394;28;20468;-66
2021/11/08 10:23:56;;;;;;;2.87;2.67;;;13.40;93.80;;;;;;6201288;28;20480;-64
2021/11/08 10:27:03;;;;;;;2.53;2.33;;;13.60;92.80;;;;;;6200742;28;20969;-66
2021/11/08 10:30:07;;;;;;;2.50;1.97;;;13.40;92.80;;;;;;6200596;28;20476;-65
2021/11/08 10:33:14;;;;;;;2.10;1.90;;;13.30;92.90;;;;;;6201383;28;20460;-64
2021/11/08 10:36:20;;;;;;;4.10;1.97;;;13.60;92.70;;;;;;6201258;28;20468;-65
2021/11/08 10:39:23;;;;;;;3.03;2.17;;;15.30;91.30;;;;;;6201262;28;20460;-66
2021/11/08 10:42:30;;;;;;;3.60;1.90;;;17.70;83.30;;;;;;6201279;28;20560;-67
2021/11/08 10:45:33;;;;;;;2.50;2.30;;;18.20;74.70;;;;;;6200763;28;20483;-65
2021/11/08 10:48:39;;;;;;;3.03;1.63;;;17.70;73.80;;;;;;6191925;28;20805;-66
2021/11/08 10:51:45;;;;;;;1.83;1.73;;;17.40;75.20;;;;;;6200873;28;20984;-67
2021/11/08 10:54:54;;;;;;;2.20;1.60;;;17.20;74.80;;;;;;6200820;28;20484;-66
2021/11/08 10:58:09;;;;;;;1.60;1.50;;;20.10;66.10;;;;;;6200544;28;20473;-65
2021/11/08 11:01:24;;;;;;;2.40;1.80;;;23.10;53.60;;;;;;6202111;28;20226;-64
2021/11/08 11:04:35;;;;;;;2.20;2.00;;;24.10;48.30;;;;;;6202017;28;20244;-65
2021/11/08 11:07:41;;;;;;;3.73;1.93;;;24.80;46.20;;;;;;6200764;28;20571;-67
2021/11/08 11:10:52;;;;;;;1.50;0.87;;;26.60;42.40;;;;;;6200732;28;20566;-67
2021/11/08 11:13:57;;;;;;;1.50;1.10;;;28.80;37.30;;;;;;6200653;28;20590;-67
2021/11/08 11:17:07;;;;;;;1.40;1.20;;;29.70;34.50;;;;;;6200754;28;20554;-65
2021/11/08 11:20:13;;;;;;;5.23;1.77;;;30.50;32.10;;;;;;6200494;28;20244;-64
2021/11/08 11:23:26;;;;;;;1.60;1.45;;;32.30;30.30;;;;;;6200663;28;20240;-67
2021/11/08 11:26:33;;;;;;;2.42;2.22;;;34.80;28.20;;;;;;6200784;28;20233;-66
2021/11/08 11:29:38;;;;;;;2.33;2.08;;;36.50;25.80;;;;;;6200673;28;20687;-66
2021/11/08 11:32:42;;;;;;;1.60;1.38;;;37.60;24.30;;;;;;6200711;28;20622;-66
2021/11/08 11:35:49;;;;;;;2.38;1.40;;;37.80;22.90;;;;;;6200774;28;20232;-66
2021/11/08 11:38:56;;;;;;;1.80;1.55;;;38.30;22.50;;;;;;6200778;28;20230;-68
2021/11/08 11:42:01;;;;;;;4.38;2.10;;;37.20;22.70;;;;;;6200729;28;20231;-65
2021/11/08 11:45:07;;;;;;;3.05;1.60;;;37.60;22.90;;;;;;6200478;28;20233;-66
2021/11/08 11:48:10;;;;;;;1.63;1.50;;;38.20;21.50;;;;;;6200702;28;20580;-65
2021/11/08 11:51:37;;;;;;;2.83;1.30;;;37.40;21.90;;;;;;6197050;28;20242;-66
2021/11/08 11:54:40;;;;;;;1.83;1.70;;;36.20;21.80;;;;;;6204804;28;20533;-67
2021/11/08 11:57:43;;;;;;;2.42;1.70;;;36.40;22.30;;;;;;6204408;28;20554;-68
2021/11/08 12:00:51;;;;;;;4.05;2.50;;;37.00;21.60;;;;;;6205320;28;20241;-67
2021/11/08 12:03:55;;;;;;;2.00;1.70;;;37.60;21.50;;;;;;6204669;28;20715;-68
2021/11/08 12:07:01;;;;;;;2.42;1.70;;;38.10;20.90;;;;;;6204493;28;20243;-65
2021/11/08 12:10:06;;;;;;;3.05;2.42;;;37.10;21.30;;;;;;6204811;28;20236;-66
2021/11/08 12:13:15;;;;;;;2.70;2.08;;;33.40;23.30;;;;;;6204111;28;20244;-65
2021/11/08 12:16:21;;;;;;;2.20;1.60;;;29.40;26.70;;;;;;6204448;28;20237;-68
2021/11/08 12:19:27;;;;;;;1.70;1.60;;;27.20;29.20;;;;;;6204533;28;20237;-66
2021/11/08 12:22:32;;;;;;;2.33;1.40;;;25.30;31.90;;;;;;6204690;28;20225;-66
2021/11/08 12:25:45;;;;;;;1.97;1.77;;;23.50;35.30;;;;;;6204018;28;20233;-66
2021/11/08 12:28:48;;;;;;;2.70;1.77;;;23.10;36.30;;;;;;6203913;28;20249;-67
2021/11/08 12:32:04;;;;;;;2.00;1.80;;;23.00;36.60;;;;;;6204257;28;20257;-68
2021/11/08 12:35:15;;;;;;;2.50;1.60;;;22.80;36.70;;;;;;6203607;28;20225;-67
2021/11/08 12:38:25;;;;;;;2.87;1.90;;;22.60;37.40;;;;;;6203725;28;20236;-67
2021/11/08 12:41:39;;;;;;;3.90;1.57;;;24.50;36.20;;;;;;6203112;28;20240;-68
2021/11/08 12:44:45;;;;;;;2.60;1.70;;;27.60;30.90;;;;;;6203195;28;20233;-67
2021/11/08 12:48:02;;;;;;;1.97;1.63;;;26.50;30.70;;;;;;6203411;28;20233;-66
2021/11/08 12:51:07;;;;;;;2.33;2.03;;;23.10;35.30;;;;;;6203119;28;20240;-66
2021/11/08 12:54:12;;;;;;;4.97;2.20;;;21.60;37.10;;;;;;6203585;28;20225;-66
2021/11/08 12:57:17;;;;;;;1.97;1.60;;;20.20;39.90;;;;;;6202422;28;20694;-65
2021/11/08 13:00:24;;;;;;;1.60;1.50;;;19.90;41.70;;;;;;6202861;28;20210;-64
2021/11/08 13:03:36;;;;;;;1.80;1.70;;;19.80;41.80;;;;;;6202360;28;20233;-65
2021/11/08 13:06:39;;;;;;;2.33;1.80;;;20.00;42.70;;;;;;6203046;28;20237;-65
2021/11/08 13:09:45;;;;;;;1.77;1.67;;;19.40;43.80;;;;;;6203280;28;20237;-64
2021/11/08 13:12:48;;;;;;;3.10;1.70;;;19.30;44.80;;;;;;6202848;28;20240;-65
2021/11/08 13:15:52;;;;;;;3.10;2.23;;;19.60;44.50;;;;;;6202387;28;20252;-64
2021/11/08 13:19:04;;;;;;;4.43;1.90;;;19.30;45.00;;;;;;6202898;28;20229;-66
2021/11/08 13:22:13;;;;;;;3.70;1.60;;;18.40;46.70;;;;;;6202402;28;20583;-65
2021/11/08 13:25:19;;;;;;;1.60;1.50;;;17.50;48.80;;;;;;6200923;28;20495;-64
2021/11/08 13:28:32;;;;;;;3.23;1.73;;;16.50;51.80;;;;;;6200927;28;20487;-64
2021/11/08 13:31:35;;;;;;;2.57;1.90;;;16.00;53.60;;;;;;6201352;28;20477;-65
2021/11/08 13:34:42;;;;;;;5.00;2.20;;;15.60;55.00;;;;;;6200293;28;20481;-65
2021/11/08 13:37:45;;;;;;;4.43;2.20;;;15.20;56.20;;;;;;6201461;28;20481;-65
2021/11/08 13:40:53;;;;;;;2.30;1.80;;;14.80;57.90;;;;;;6194798;28;20464;-66
2021/11/08 13:43:59;;;;;;;2.10;1.50;;;14.50;59.50;;;;;;6202995;28;20476;-65
2021/11/08 13:47:03;;;;;;;2.60;2.03;;;14.20;61.60;;;;;;6201752;28;20544;-65
2021/11/08 13:50:16;;;;;;;2.27;2.07;;;13.80;64.10;;;;;;6202094;28;20561;-64
2021/11/08 13:53:23;;;;;;;3.10;2.27;;;13.60;66.50;;;;;;6201230;28;20483;-65
2021/11/08 13:56:32;;;;;;;2.60;2.30;;;13.50;68.30;;;;;;6201705;28;20488;-65
2021/11/08 13:59:37;;;;;;;2.83;2.40;;;13.20;70.30;;;;;;6202240;28;20469;-63
2021/11/08 14:02:47;;;;;;;3.63;2.10;;;13.00;72.50;;;;;;6193787;28;20481;-65
2021/11/08 14:05:53;;;;;;;2.60;2.10;;;12.90;74.10;;;;;;6202436;28;20481;-65
2021/11/08 14:08:56;;;;;;;6.50;4.80;;;12.90;75.90;;;;;;6206095;28;20483;-65
2021/11/08 14:12:02;;;;;;;4.17;3.70;;;12.80;77.50;;;;;;6205173;28;20481;-63
2021/11/08 14:15:08;;;;;;;3.93;3.30;;;12.90;77.60;;;;;;6201645;28;20487;-65
2021/11/08 14:18:20;;;;;;;3.80;3.40;;;12.80;79.00;;;;;;6201684;28;20457;-64
2021/11/08 14:21:26;;;;;;;5.03;2.93;;;12.80;80.00;;;;;;6201409;28;20430;-66
2021/11/08 14:24:32;;;;;;;3.50;2.30;;;12.70;80.90;;;;;;6201497;28;20464;-66
2021/11/08 14:27:37;;;;;;;3.30;3.00;;;12.60;81.80;;;;;;6201161;28;20484;-66
2021/11/08 14:30:40;;;;;;;3.23;2.23;;;12.60;82.40;;;;;;6201514;28;20468;-66
2021/11/08 14:33:44;;;;;;;3.53;3.13;;;12.60;82.60;;;;;;6200908;28;20475;-65
2021/11/08 14:36:52;;;;;;;2.90;2.60;;;12.60;83.20;;;;;;6201162;28;20495;-66
2021/11/08 14:39:55;;;;;;;4.53;2.80;;;12.60;84.20;;;;;;6201197;28;20476;-68
2021/11/08 14:42:58;;;;;;;3.77;3.47;;;12.60;84.60;;;;;;6201271;28;20481;-65
2021/11/08 14:46:03;;;;;;;7.97;2.60;;;12.50;85.00;;;;;;6201019;28;20473;-67
2021/11/08 14:49:14;;;;;;;3.47;3.17;;;12.40;85.80;;;;;;6201155;28;20543;-67
2021/11/08 14:52:19;;;;;;;2.50;2.30;;;12.40;86.40;;;;;;6200753;28;21031;-66
2021/11/08 14:55:25;;;;;;;3.10;2.80;;;12.30;86.70;;;;;;6200564;28;20484;-65
2021/11/08 14:58:28;;;;;;;2.70;2.47;;;12.40;87.30;;;;;;6200964;28;20488;-64
2021/11/08 15:01:32;;;;;;;3.40;3.17;;;12.30;88.00;;;;;;6200912;28;20472;-66
2021/11/08 15:04:44;;;;;;;4.33;3.63;;;12.30;88.70;;;;;;6196472;28;20545;-65
2021/11/08 15:07:57;;;;;;;3.07;2.77;;;12.20;89.20;;;;;;6200446;28;20868;-66
2021/11/08 15:11:00;;;;;;;3.80;2.90;;;12.20;89.70;;;;;;6200508;28;20487;-66
2021/11/08 15:14:06;;;;;;;6.03;2.73;;;12.10;90.10;;;;;;6200741;28;20488;-66
2021/11/08 15:17:09;;;;;;;3.00;2.80;;;12.00;90.40;;;;;;6200193;28;20996;-66
2021/11/08 15:20:17;;;;;;;4.40;3.13;;;11.90;90.70;;;;;;6200420;28;20972;-66
2021/11/08 15:23:25;;;;;;;6.40;3.37;;;11.90;91.10;;;;;;6200339;28;20473;-67
2021/11/08 15:26:29;;;;;;;4.60;4.17;;;11.80;91.40;;;;;;6202814;28;20495;-66
2021/11/08 15:29:36;;;;;;;9.67;6.10;;;11.60;91.80;;;;;;6205310;28;20465;-68
2021/11/08 15:32:40;;;;;;;8.90;5.67;;;11.60;92.10;;;;;;6205716;28;20508;-66
2021/11/08 15:35:48;;;;;;;5.43;3.50;;;11.50;92.40;;;;;;6204856;28;20491;-67
2021/11/08 15:38:54;;;;;;;12.90;9.50;;;11.40;92.90;;;;;;6204920;28;20960;-66
2021/11/08 15:42:00;;;;;;;10.50;7.73;;;11.30;93.30;;;;;;6204893;28;20472;-67
2021/11/08 15:45:03;;;;;;;6.87;5.67;;;11.20;93.70;;;;;;6204971;28;20987;-67
2021/11/08 15:48:07;;;;;;;5.07;4.33;;;11.20;94.10;;;;;;6204704;28;20472;-67
2021/11/08 15:51:10;;;;;;;6.30;4.07;;;11.20;94.30;;;;;;6204722;28;20527;-67
2021/11/08 15:54:18;;;;;;;4.63;4.10;;;11.20;94.50;;;;;;6204789;28;20488;-67
2021/11/08 15:57:21;;;;;;;4.60;4.00;;;11.20;94.60;;;;;;6204320;28;20485;-67
2021/11/08 16:00:25;;;;;;;4.53;4.00;;;11.10;94.70;;;;;;6204689;28;20449;-66
2021/11/08 16:03:28;;;;;;;5.30;4.33;;;11.10;95.00;;;;;;6205026;28;20445;-65
2021/11/08 16:06:31;;;;;;;5.03;4.53;;;11.10;95.30;;;;;;6204158;28;20909;-65
2021/11/08 16:09:36;;;;;;;4.80;4.10;;;11.00;95.40;;;;;;6200108;28;20483;-66
2021/11/08 16:12:40;;;;;;;4.63;3.87;;;11.00;95.70;;;;;;6204206;28;20813;-66
2021/11/08 16:15:44;;;;;;;5.40;4.90;;;11.00;95.70;;;;;;6204553;28;20480;-66
2021/11/08 16:18:48;;;;;;;8.60;6.90;;;11.00;95.80;;;;;;6204366;28;20472;-67
2021/11/08 16:21:51;;;;;;;9.43;7.00;;;11.00;95.90;;;;;;6204029;28;20472;-66
2021/11/08 16:24:55;;;;;;;8.13;6.20;;;10.90;96.00;;;;;;6203887;28;20473;-66
2021/11/08 16:27:59;;;;;;;7.70;4.47;;;10.90;96.00;;;;;;6204266;28;20612;-66
2021/11/08 16:31:09;;;;;;;7.10;5.60;;;10.90;96.10;;;;;;6204139;28;20481;-66
2021/11/08 16:34:12;;;;;;;5.47;4.97;;;10.90;96.20;;;;;;6203765;28;20640;-66
2021/11/08 16:37:15;;;;;;;9.10;6.80;;;10.90;96.20;;;;;;6202856;28;20503;-67
2021/11/08 16:40:21;;;;;;;10.87;7.00;;;10.80;96.40;;;;;;6203477;28;20465;-67
2021/11/08 16:43:25;;;;;;;6.07;5.50;;;10.80;96.50;;;;;;6202820;28;20825;-67
2021/11/08 16:46:28;;;;;;;7.90;5.10;;;10.80;96.50;;;;;;6203585;28;20485;-66
2021/11/08 16:49:32;;;;;;;7.10;6.10;;;10.80;96.50;;;;;;6203649;28;20479;-67
2021/11/08 16:52:36;;;;;;;9.20;6.30;;;10.80;96.50;;;;;;6203037;28;20612;-66
2021/11/08 16:55:40;;;;;;;8.70;6.90;;;10.80;96.50;;;;;;6202494;28;20487;-65
2021/11/08 16:58:45;;;;;;;11.73;7.00;;;10.70;96.60;;;;;;6203166;28;20477;-66
2021/11/08 17:01:51;;;;;;;6.57;5.87;;;10.70;96.70;;;;;;6203855;28;20988;-66
2021/11/08 17:04:55;;;;;;;7.23;5.97;;;10.70;96.70;;;;;;6203789;28;20484;-67
2021/11/08 17:08:01;;;;;;;12.53;7.60;;;10.70;96.80;;;;;;6203667;28;20480;-64
2021/11/08 17:13:08;;;;;;;8.67;6.60;;;10.60;97.20;;;;;;6202897;28;20484;-64
2021/11/08 17:14:43;;;;;;;7.40;6.10;;;10.60;97.00;;;;;;6194078;28;20826;-65
2021/11/08 17:17:46;;;;;;;7.07;5.93;;;10.60;96.90;;;;;;6202769;28;20496;-66
2021/11/08 17:20:51;;;;;;;7.93;6.10;;;10.60;96.90;;;;;;6202753;28;20835;-64
2021/11/08 17:23:55;;;;;;;8.43;7.07;;;10.60;96.90;;;;;;6202516;28;20611;-65
2021/11/08 17:27:00;;;;;;;9.07;6.50;;;10.60;97.00;;;;;;6202449;28;20488;-66
2021/11/08 17:30:05;;;;;;;7.70;6.90;;;10.50;97.10;;;;;;6203210;28;20481;-66
2021/11/08 17:33:08;;;;;;;8.87;6.87;;;10.60;97.20;;;;;;6202310;28;20483;-65
2021/11/08 17:36:13;;;;;;;9.27;6.70;;;10.60;97.20;;;;;;6202673;28;20476;-65